Time;durP1;ratioP1;P1;durP2;ratioP2;P2;SDS_P1;SDS_P2;PMS_P1;PMS_P2;Temp;Humidity;BMP_temperature;BMP_pressure;BME280_temperature;BME280_humidity;BME280_pressure;Samples;Min_cycle;Max_cycle;Signal;HPM_P1;HPM_P2
2022/06/02 00:01:39;;;;;;;6.38;5.28;;;;;;;15.56;78.36;96585.44;5114007;28;20027;-62
2022/06/02 00:04:21;;;;;;;8.45;5.07;;;;;;;15.58;78.32;96590.59;5114046;28;20024;-61
2022/06/02 00:07:00;;;;;;;7.22;5.10;;;;;;;15.58;77.93;96585.34;5114067;28;20039;-66
2022/06/02 00:09:42;;;;;;;6.75;5.28;;;;;;;15.55;77.96;96583.72;5114034;28;20031;-64
2022/06/02 00:12:27;;;;;;;10.13;5.28;;;;;;;15.55;77.94;96581.09;5113411;28;20043;-62
2022/06/02 00:15:19;;;;;;;8.25;5.68;;;;;;;15.49;78.08;96579.66;5113991;27;20035;-66
2022/06/02 00:17:50;;;;;;;8.00;5.60;;;;;;;15.46;78.24;96577.22;5113910;28;20385;-66
2022/06/02 00:20:45;;;;;;;9.57;5.40;;;;;;;15.44;78.75;96586.16;5113789;28;20019;-62
2022/06/02 00:23:39;;;;;;;7.93;5.30;;;;;;;15.41;78.76;96579.25;5113533;28;20488;-66
2022/06/02 00:26:35;;;;;;;7.60;5.68;;;;;;;15.33;79.28;96577.06;5113753;28;20069;-63
2022/06/02 00:29:31;;;;;;;11.85;6.35;;;;;;;15.27;79.78;96575.59;5113699;28;20035;-64
2022/06/02 00:32:09;;;;;;;12.35;5.30;;;;;;;15.28;79.52;96579.97;5113990;28;20385;-61
2022/06/02 00:34:46;;;;;;;6.43;5.43;;;;;;;15.23;79.97;96582.00;5113498;28;20019;-62
2022/06/02 00:37:26;;;;;;;14.30;5.30;;;;;;;15.31;78.44;96583.34;5113575;28;20035;-62
2022/06/02 00:39:52;;;;;;;7.38;6.13;;;;;;;15.28;80.73;96582.59;5113782;28;20023;-65
2022/06/02 00:42:30;;;;;;;7.80;5.70;;;;;;;15.33;80.12;96581.47;5113527;28;20024;-64
2022/06/02 00:44:55;;;;;;;7.90;5.57;;;;;;;15.32;79.51;96585.06;5113462;28;20028;-65
2022/06/02 00:47:40;;;;;;;8.60;5.72;;;;;;;15.31;79.41;96575.44;5113531;28;20031;-64
2022/06/02 00:50:06;;;;;;;8.30;5.53;;;;;;;15.20;79.87;96574.25;5113474;28;20015;-63
2022/06/02 00:52:58;;;;;;;13.73;5.80;;;;;;;15.24;79.47;96569.69;5113383;28;20536;-65
2022/06/02 00:58:57;;;;;;;9.73;5.90;;;;;;;15.23;79.37;96565.34;5113768;28;20491;-63
2022/06/02 01:01:32;;;;;;;11.00;6.03;;;;;;;15.18;79.60;96556.84;5113305;28;20038;-63
2022/06/02 01:04:00;;;;;;;9.07;5.68;;;;;;;15.10;79.90;96563.41;5113391;28;20024;-63
2022/06/02 01:06:56;;;;;;;5.97;5.28;;;;;;;15.14;79.68;96562.28;5113235;28;20028;-64
2022/06/02 01:09:39;;;;;;;6.55;5.95;;;;;;;15.21;79.60;96562.81;5113309;28;20031;-62
2022/06/02 01:12:17;;;;;;;11.15;5.68;;;;;;;15.25;79.29;96558.19;5113306;28;20032;-65
2022/06/02 01:14:51;;;;;;;8.45;5.15;;;;;;;15.31;79.33;96562.25;5113238;28;20036;-65
2022/06/02 01:17:20;;;;;;;6.28;5.13;;;;;;;15.28;79.06;96561.50;5113201;28;20127;-66
2022/06/02 01:20:07;;;;;;;6.93;6.20;;;;;;;15.28;79.02;96552.75;5113202;28;20036;-64
2022/06/02 01:22:52;;;;;;;13.43;5.45;;;;;;;15.31;79.45;96549.09;5113194;28;20028;-65
2022/06/02 01:25:24;;;;;;;7.65;5.55;;;;;;;15.29;80.42;96546.53;5116251;28;20067;-65
2022/06/02 01:28:16;;;;;;;7.55;5.63;;;;;;;15.32;79.78;96542.91;5117019;28;20102;-61
2022/06/02 01:30:48;;;;;;;8.10;5.45;;;;;;;15.27;78.84;96543.16;5117142;28;20676;-65
2022/06/02 01:33:33;;;;;;;6.35;4.53;;;;;;;15.21;78.67;96539.09;5116951;28;20035;-67
2022/06/02 01:36:31;;;;;;;10.27;5.40;;;;;;;15.18;78.45;96544.53;5116742;28;20052;-61
2022/06/02 01:39:20;;;;;;;17.77;5.07;;;;;;;15.15;78.23;96542.06;5116736;28;20082;-63
2022/06/02 01:42:17;;;;;;;7.45;5.70;;;;;;;15.09;78.80;96542.41;5116896;28;20035;-64
2022/06/02 01:45:07;;;;;;;6.07;5.40;;;;;;;14.93;78.93;96547.69;5092916;28;20043;-62
2022/06/02 01:47:40;;;;;;;10.43;5.30;;;;;;;14.90;79.18;96551.34;5116816;28;20098;-64
2022/06/02 01:50:27;;;;;;;11.50;5.47;;;;;;;14.81;79.37;96542.16;5116662;28;20439;-66
2022/06/02 01:53:07;;;;;;;6.95;5.45;;;;;;;14.81;79.36;96550.03;5116704;28;20027;-64
2022/06/02 01:55:57;;;;;;;6.22;4.55;;;;;;;14.80;79.33;96542.22;5116651;28;20019;-63
2022/06/02 01:58:46;;;;;;;7.80;4.82;;;;;;;14.78;80.13;96544.97;5116608;28;20035;-65
2022/06/02 02:01:17;;;;;;;7.80;5.03;;;;;;;14.82;79.83;96540.38;5116555;28;20051;-62
2022/06/02 02:03:52;;;;;;;6.85;5.03;;;;;;;14.79;80.91;96536.13;5116360;28;20077;-64
2022/06/02 02:06:27;;;;;;;7.90;5.90;;;;;;;14.78;81.17;96537.91;5116289;27;20036;-65
2022/06/02 02:09:05;;;;;;;7.13;5.65;;;;;;;14.80;81.07;96539.59;5116302;28;20020;-66
2022/06/02 02:11:48;;;;;;;6.22;5.15;;;;;;;14.77;81.41;96541.47;5116252;28;20477;-64
2022/06/02 02:14:41;;;;;;;5.88;5.20;;;;;;;14.81;81.47;96542.16;5116239;28;20054;-63
2022/06/02 02:17:25;;;;;;;7.00;6.28;;;;;;;14.80;81.47;96540.47;5116145;28;20077;-65
2022/06/02 02:20:03;;;;;;;5.57;5.07;;;;;;;14.78;81.41;96539.72;5116206;28;20377;-63
2022/06/02 02:22:46;;;;;;;7.40;5.07;;;;;;;14.78;81.50;96537.91;5116078;27;20524;-66
2022/06/02 02:25:41;;;;;;;6.93;4.95;;;;;;;14.80;81.20;96543.09;5115891;28;20036;-65
2022/06/02 02:28:32;;;;;;;6.80;5.80;;;;;;;14.80;81.37;96542.22;5115754;28;20041;-64
2022/06/02 02:31:09;;;;;;;13.05;6.50;;;;;;;14.80;81.38;96539.59;5115800;28;20560;-63
2022/06/02 02:33:45;;;;;;;6.88;5.90;;;;;;;14.74;81.63;96546.03;5115850;28;20045;-67
2022/06/02 02:36:32;;;;;;;7.50;5.75;;;;;;;14.82;81.84;96548.28;5115299;28;20127;-66
2022/06/02 02:39:28;;;;;;;5.90;5.13;;;;;;;14.75;81.42;96537.22;5115625;28;20038;-63
2022/06/02 02:42:07;;;;;;;5.40;4.90;;;;;;;14.80;81.01;96545.72;5115730;28;20038;-65
2022/06/02 02:45:04;;;;;;;5.72;4.65;;;;;;;14.83;80.51;96547.34;5115804;28;20481;-64
2022/06/02 02:47:37;;;;;;;7.35;5.15;;;;;;;14.84;80.42;96541.16;5115545;28;20028;-64
2022/06/02 02:50:14;;;;;;;5.38;4.72;;;;;;;14.86;80.39;96549.78;5115367;28;20027;-64
2022/06/02 02:53:01;;;;;;;6.05;5.00;;;;;;;14.84;80.75;96549.06;5115424;28;20032;-66
2022/06/02 02:55:33;;;;;;;5.97;5.20;;;;;;;14.76;81.06;96547.66;5115268;28;20358;-62
2022/06/02 02:58:13;;;;;;;10.18;4.85;;;;;;;14.80;81.07;96550.13;5115474;28;20473;-64
2022/06/02 03:00:43;;;;;;;6.32;4.60;;;;;;;14.81;80.72;96557.13;5115309;28;20465;-63
2022/06/02 03:03:09;;;;;;;5.88;4.93;;;;;;;14.87;80.28;96556.78;5115218;28;20572;-65
2022/06/02 03:05:51;;;;;;;7.60;4.60;;;;;;;14.89;80.44;96558.41;5114994;28;20038;-65
2022/06/02 03:08:50;;;;;;;7.95;4.88;;;;;;;14.91;80.25;96555.69;5115051;28;20168;-66
2022/06/02 03:11:34;;;;;;;7.38;4.85;;;;;;;14.94;80.29;96555.50;5115069;28;20032;-63
2022/06/02 03:14:14;;;;;;;5.68;5.13;;;;;;;14.89;80.67;96562.81;5115022;28;20106;-63
2022/06/02 03:16:41;;;;;;;5.80;4.93;;;;;;;14.88;80.74;96561.97;5114942;28;20393;-62
2022/06/02 03:19:23;;;;;;;6.07;4.70;;;;;;;14.94;80.94;96566.03;5113561;28;20397;-65
2022/06/02 03:22:07;;;;;;;10.13;5.35;;;;;;;14.97;81.13;96562.38;5114892;28;20023;-65
2022/06/02 03:24:50;;;;;;;8.85;5.57;;;;;;;14.98;81.79;96557.03;5114952;28;20457;-62
2022/06/02 03:27:31;;;;;;;7.70;5.10;;;;;;;15.11;82.02;96554.56;5114555;28;20057;-66
2022/06/02 03:30:09;;;;;;;8.70;5.15;;;;;;;15.28;81.57;96561.50;5114824;28;20028;-63
2022/06/02 03:32:35;;;;;;;11.75;5.13;;;;;;;15.53;80.92;96559.25;5114698;28;20473;-62
2022/06/02 03:35:18;;;;;;;8.23;4.13;;;;;;;15.93;79.80;96558.72;5114306;28;20069;-63
2022/06/02 03:38:03;;;;;;;7.13;4.13;;;;;;;16.30;77.75;96555.66;5114474;28;20036;-68
2022/06/02 03:40:37;;;;;;;6.95;3.83;;;;;;;16.71;76.34;96555.84;5082737;28;20028;-65
2022/06/02 03:43:26;;;;;;;4.18;3.88;;;;;;;17.11;75.43;96566.56;5114331;28;20499;-62
2022/06/02 03:46:20;;;;;;;6.45;3.55;;;;;;;17.61;72.87;96555.41;5113905;28;20042;-67
2022/06/02 03:48:55;;;;;;;4.65;3.13;;;;;;;18.09;71.36;96561.09;5114286;28;20503;-64
2022/06/02 03:51:42;;;;;;;6.47;3.22;;;;;;;18.59;70.75;96571.81;5114222;28;20392;-67
2022/06/02 03:54:22;;;;;;;5.78;3.42;;;;;;;19.04;68.67;96565.13;5114201;28;20461;-66
2022/06/02 03:57:26;;;;;;;4.53;2.90;;;;;;;19.50;66.29;96570.75;5114134;28;20080;-67
2022/06/02 04:00:08;;;;;;;4.60;3.28;;;;;;;19.93;65.28;96571.97;5112846;28;20485;-68
2022/06/02 04:02:43;;;;;;;3.97;3.30;;;;;;;20.32;63.59;96571.72;5114128;28;20048;-65
2022/06/02 04:05:30;;;;;;;4.32;2.70;;;;;;;20.65;62.81;96574.53;5113979;28;20024;-67
2022/06/02 04:08:18;;;;;;;3.60;2.97;;;;;;;21.00;62.35;96572.69;5114242;27;20094;-67
2022/06/02 04:11:28;;;;;;;4.22;2.70;;;;;;;21.45;61.60;96575.28;5114055;28;20385;-66
2022/06/02 04:14:02;;;;;;;4.80;2.78;;;;;;;21.81;60.13;96572.38;5065239;28;20039;-67
2022/06/02 04:16:40;;;;;;;4.35;3.10;;;;;;;22.12;59.45;96573.44;5113846;28;20030;-68
2022/06/02 04:22:35;;;;;;;4.80;2.60;;;;;;;22.81;58.29;96579.97;5113886;28;20078;-67
2022/06/02 04:25:18;;;;;;;4.00;2.50;;;;;;;23.15;57.50;96578.00;5113734;28;20039;-67
2022/06/02 04:28:00;;;;;;;3.63;3.17;;;;;;;23.46;56.74;96589.47;5113698;28;20028;-67
2022/06/02 04:30:31;;;;;;;4.55;2.80;;;;;;;23.83;56.37;96579.06;5113625;28;20122;-67
2022/06/02 04:33:21;;;;;;;5.57;2.72;;;;;;;24.13;55.91;96590.59;5113790;28;20026;-66
2022/06/02 04:36:11;;;;;;;4.07;3.05;;;;;;;24.44;55.43;96586.91;5113554;28;20062;-65
2022/06/02 04:38:55;;;;;;;5.68;2.70;;;;;;;24.74;54.97;96585.78;5113621;28;20027;-64
2022/06/02 04:41:58;;;;;;;3.47;2.67;;;;;;;24.99;54.73;96585.31;5113710;28;20557;-66
2022/06/02 04:44:42;;;;;;;3.60;2.40;;;;;;;25.32;53.92;96585.69;5113524;28;20047;-66
2022/06/02 04:47:29;;;;;;;3.45;2.80;;;;;;;25.58;54.30;96590.28;5113506;28;20050;-64
2022/06/02 04:49:57;;;;;;;6.32;2.97;;;;;;;25.86;53.61;96581.38;5113567;28;20130;-66
2022/06/02 04:52:53;;;;;;;3.45;2.65;;;;;;;26.17;53.33;96582.78;5113505;28;20023;-68
2022/06/02 04:55:53;;;;;;;2.78;2.58;;;;;;;26.43;51.67;96592.72;5113536;28;20023;-64
2022/06/02 04:58:24;;;;;;;5.25;2.70;;;;;;;26.62;51.35;96581.78;5104324;28;20047;-66
2022/06/02 05:00:59;;;;;;;;;;;;;;;26.81;52.00;96584.38;5116807;28;20389;-66
2022/06/02 05:03:46;;;;;;;3.05;2.67;;;;;;;27.09;51.10;96585.03;5117599;28;19915;-66
2022/06/02 05:06:32;;;;;;;5.88;3.00;;;;;;;27.34;50.88;96584.28;5116123;28;20416;-66
2022/06/02 05:09:42;;;;;;;4.65;2.60;;;;;;;27.62;50.32;96592.06;5117345;28;20031;-68
2022/06/02 05:12:31;;;;;;;5.22;2.63;;;;;;;27.93;49.84;96599.50;5054667;28;20033;-69
2022/06/02 05:15:31;;;;;;;2.63;2.42;;;;;;;28.08;48.97;96586.25;5054559;28;20476;-69
2022/06/02 05:17:57;;;;;;;;;;;;;;;28.25;46.84;96592.47;5108817;28;20421;-67
2022/06/02 05:20:44;;;;;;;3.95;2.70;;;;;;;28.45;45.78;96585.91;5117274;28;19912;-69
2022/06/02 05:23:15;;;;;;;2.70;2.50;;;;;;;28.63;45.84;96586.53;5117106;28;20062;-65
2022/06/02 05:26:05;;;;;;;4.05;2.95;;;;;;;28.91;44.35;96579.91;5117110;28;20059;-63
2022/06/02 05:29:03;;;;;;;4.88;3.35;;;;;;;29.15;45.84;96591.59;5117137;28;20062;-66
2022/06/02 05:31:36;;;;;;;2.60;2.35;;;;;;;29.31;46.25;96590.69;5117154;28;20136;-69
2022/06/02 05:34:07;;;;;;;5.85;2.95;;;;;;;29.49;45.70;96585.03;5117188;28;20162;-68
2022/06/02 05:36:49;;;;;;;3.33;2.70;;;;;;;29.67;44.86;96592.03;5116863;28;20047;-66
2022/06/02 05:39:47;;;;;;;2.85;2.58;;;;;;;29.95;46.09;96591.47;5116930;27;20027;-65
2022/06/02 05:42:25;;;;;;;4.57;2.33;;;;;;;30.14;45.42;96598.25;5116808;28;20073;-70
2022/06/02 05:45:02;;;;;;;5.13;2.83;;;;;;;30.36;44.11;96594.88;5116701;28;20028;-66
2022/06/02 05:47:47;;;;;;;4.32;3.00;;;;;;;30.60;45.19;96593.78;5116973;28;20039;-67
2022/06/02 05:50:45;;;;;;;5.07;2.60;;;;;;;30.81;41.99;96594.09;5116641;28;20358;-66
2022/06/02 05:53:31;;;;;;;5.57;2.53;;;;;;;31.07;41.62;96592.81;5116547;28;20042;-65
2022/06/02 05:56:06;;;;;;;4.45;2.58;;;;;;;31.11;40.88;96594.94;5116643;27;20087;-69
2022/06/02 05:58:44;;;;;;;3.28;2.40;;;;;;;31.23;39.41;96598.00;5116459;28;20040;-69
2022/06/02 06:01:19;;;;;;;3.80;3.33;;;;;;;31.46;40.65;96596.22;5116632;27;20034;-65
2022/06/02 06:03:53;;;;;;;3.78;2.72;;;;;;;31.64;41.10;96593.91;5116395;27;20106;-70
2022/06/02 06:06:19;;;;;;;3.63;2.35;;;;;;;31.84;41.17;96595.97;5116342;27;20127;-65
2022/06/02 06:09:12;;;;;;;3.40;2.88;;;;;;;31.87;41.08;96597.44;5116318;28;20057;-65
2022/06/02 06:12:03;;;;;;;4.25;2.72;;;;;;;31.81;38.81;96595.53;5088733;28;20039;-72
2022/06/02 06:15:22;;;;;;;5.50;3.10;;;;;;;30.77;38.63;96591.81;5116240;27;20031;-65
2022/06/02 06:18:10;;;;;;;5.72;3.08;;;;;;;30.22;40.38;96596.53;5053420;28;20043;-69
2022/06/02 06:21:06;;;;;;;4.80;2.63;;;;;;;29.71;40.19;96592.50;5116044;28;20023;-69
2022/06/02 06:23:32;;;;;;;5.75;3.83;;;;;;;29.36;42.15;96596.41;5116037;28;20027;-68
2022/06/02 06:26:16;;;;;;;3.55;2.92;;;;;;;29.26;44.58;96590.38;5115902;28;20027;-69
2022/06/02 06:29:17;;;;;;;7.55;2.97;;;;;;;29.32;41.83;96594.22;5116139;28;20430;-68
2022/06/02 06:31:59;;;;;;;6.47;3.00;;;;;;;28.93;42.52;96593.19;5116009;28;20028;-69
2022/06/02 06:35:06;;;;;;;6.78;2.97;;;;;;;29.10;41.63;96597.50;5115602;28;20026;-67
2022/06/02 06:37:44;;;;;;;5.93;3.00;;;;;;;28.85;42.49;96599.44;5087036;28;20114;-71
2022/06/02 06:40:38;;;;;;;6.00;3.03;;;;;;;28.64;42.48;96595.44;5115792;28;20051;-65
2022/06/02 06:43:27;;;;;;;3.75;2.78;;;;;;;28.70;42.61;96604.69;5115508;28;20034;-65
2022/06/02 06:46:20;;;;;;;6.50;3.58;;;;;;;28.76;43.47;96609.38;5115576;28;20028;-64
2022/06/02 06:48:59;;;;;;;10.73;3.28;;;;;;;28.83;41.86;96601.47;5115597;27;20117;-65
2022/06/02 06:51:40;;;;;;;6.32;3.25;;;;;;;28.94;41.29;96601.13;5115557;28;20028;-70
2022/06/02 06:54:29;;;;;;;4.65;2.55;;;;;;;28.82;42.42;96597.94;5115497;28;20027;-65
2022/06/02 06:57:39;;;;;;;6.32;3.05;;;;;;;29.04;42.55;96602.78;5115371;28;20078;-64
2022/06/02 07:00:18;;;;;;;4.20;3.08;;;;;;;29.10;40.67;96596.66;5052544;28;20123;-64
2022/06/02 07:03:16;;;;;;;5.20;2.88;;;;;;;29.04;40.74;96603.59;5108331;28;20031;-65
2022/06/02 07:06:12;;;;;;;6.55;3.45;;;;;;;29.18;42.39;96595.78;5115225;28;20073;-68
2022/06/02 07:08:45;;;;;;;8.25;3.03;;;;;;;29.33;40.70;96599.44;5106676;28;20100;-65
2022/06/02 07:14:22;;;;;;;5.47;2.40;;;;;;;29.41;38.86;96597.72;5115137;28;20400;-66
2022/06/02 07:16:58;;;;;;;8.60;3.33;;;;;;;29.52;40.47;96605.38;5115078;28;20019;-65
2022/06/02 07:19:59;;;;;;;4.38;2.78;;;;;;;29.46;40.29;96606.94;5114914;28;20031;-62
2022/06/02 07:23:18;;;;;;;4.32;2.80;;;;;;;29.73;40.31;96604.78;5115021;28;20084;-65
2022/06/02 07:26:06;;;;;;;4.70;3.00;;;;;;;29.85;39.35;96609.75;5052151;28;20036;-64
2022/06/02 07:28:47;;;;;;;6.90;2.78;;;;;;;29.65;39.67;96610.25;5114829;28;20077;-68
2022/06/02 07:31:24;;;;;;;5.78;2.97;;;;;;;29.59;38.58;96603.69;5114796;28;20550;-68
2022/06/02 07:34:13;;;;;;;5.88;3.05;;;;;;;29.42;40.01;96605.63;5114637;28;20053;-67
2022/06/02 07:36:57;;;;;;;5.82;2.92;;;;;;;29.79;39.25;96603.22;5114472;28;20485;-68
2022/06/02 07:39:44;;;;;;;4.75;2.80;;;;;;;29.90;38.12;96612.75;5114573;28;20072;-67
2022/06/02 07:42:39;;;;;;;3.88;3.00;;;;;;;29.99;38.47;96606.28;5114597;28;20473;-64
2022/06/02 07:45:17;;;;;;;4.53;2.80;;;;;;;30.18;37.59;96604.13;5114375;28;20020;-70
2022/06/02 07:48:17;;;;;;;7.93;3.00;;;;;;;30.17;38.63;96607.84;5114464;28;20030;-66
2022/06/02 07:51:02;;;;;;;7.68;2.88;;;;;;;29.99;38.84;96609.00;5114364;28;20028;-70
2022/06/02 07:54:00;;;;;;;7.88;2.78;;;;;;;29.74;37.57;96606.44;5114345;28;20107;-68
2022/06/02 07:56:45;;;;;;;3.17;2.38;;;;;;;29.53;38.71;96607.06;5109779;28;20043;-67
2022/06/02 07:59:32;;;;;;;3.42;2.50;;;;;;;29.68;38.36;96606.34;5114190;28;20024;-65
2022/06/02 08:02:27;;;;;;;3.47;2.35;;;;;;;29.99;38.85;96609.00;5114193;28;20032;-66
2022/06/02 08:05:04;;;;;;;9.73;2.30;;;;;;;29.91;36.94;96619.00;5112282;28;20043;-67
2022/06/02 08:07:59;;;;;;;3.78;2.33;;;;;;;29.93;37.23;96611.56;5114085;28;20027;-68
2022/06/02 08:10:50;;;;;;;6.22;2.45;;;;;;;30.06;38.71;96621.72;5091656;28;20136;-66
2022/06/02 08:13:39;;;;;;;5.15;2.70;;;;;;;29.74;35.95;96611.84;5113842;28;20038;-65
2022/06/02 08:16:21;;;;;;;3.40;2.28;;;;;;;29.93;34.80;96608.84;5113970;28;20024;-68
2022/06/02 08:19:08;;;;;;;6.18;2.40;;;;;;;29.95;36.36;96610.34;5113926;28;20110;-62
2022/06/02 08:21:37;;;;;;;6.60;2.63;;;;;;;30.12;35.59;96604.81;5113747;28;20035;-64
2022/06/02 08:24:34;;;;;;;5.38;2.78;;;;;;;29.94;34.56;96605.13;5113684;28;20508;-64
2022/06/02 08:27:18;;;;;;;3.58;2.50;;;;;;;30.00;36.35;96607.09;5084541;28;20489;-68
2022/06/02 08:29:55;;;;;;;4.03;2.28;;;;;;;30.21;35.16;96601.06;5113896;28;20031;-65
2022/06/02 08:32:39;;;;;;;6.32;2.53;;;;;;;30.36;32.92;96594.88;5113240;28;20500;-68
2022/06/02 08:35:21;;;;;;;6.43;2.40;;;;;;;30.26;33.21;96601.38;5113386;28;20043;-66
2022/06/02 08:37:55;;;;;;;6.13;2.30;;;;;;;30.60;34.59;96604.59;5113743;28;20396;-70
2022/06/02 08:40:42;;;;;;;5.82;2.05;;;;;;;30.75;31.34;96598.34;5113675;28;20032;-63
2022/06/02 08:43:11;;;;;;;3.55;2.08;;;;;;;30.62;31.01;96591.75;5113637;28;20035;-71
2022/06/02 08:45:50;;;;;;;5.15;2.25;;;;;;;30.64;31.82;96597.78;5113449;28;20027;-66
2022/06/02 08:48:24;;;;;;;3.05;1.90;;;;;;;30.74;30.83;96594.84;5113615;28;20034;-66
2022/06/02 08:51:02;;;;;;;3.67;2.08;;;;;;;30.79;31.40;96598.88;5113485;28;20077;-64
2022/06/02 08:53:55;;;;;;;2.30;1.90;;;;;;;31.01;30.79;96591.69;5113559;28;20024;-64
2022/06/02 08:56:57;;;;;;;5.88;2.38;;;;;;;31.23;31.08;96594.44;5113462;28;20485;-65
2022/06/02 08:59:50;;;;;;;2.58;2.10;;;;;;;31.19;32.15;96601.25;5113422;28;20466;-68
2022/06/02 09:02:45;;;;;;;6.50;2.00;;;;;;;31.23;29.55;96592.59;5113510;28;20060;-68
2022/06/02 09:05:29;;;;;;;4.43;2.47;;;;;;;31.42;33.14;96594.94;5113290;28;20415;-67
2022/06/02 09:08:30;;;;;;;8.32;2.40;;;;;;;31.79;31.11;96598.44;5113549;28;20039;-63
2022/06/02 09:11:15;;;;;;;4.75;2.30;;;;;;;32.06;30.78;96589.78;5113439;28;20157;-65
2022/06/02 09:14:04;;;;;;;3.63;2.53;;;;;;;32.36;31.45;96595.00;5113492;28;20032;-65
2022/06/02 09:16:57;;;;;;;7.72;2.25;;;;;;;32.09;31.31;96597.50;5113521;28;20023;-67
2022/06/02 09:19:25;;;;;;;5.00;2.20;;;;;;;31.50;31.68;96592.09;5113392;28;20099;-67
2022/06/02 09:22:09;;;;;;;4.93;2.30;;;;;;;31.21;32.24;96585.72;5113159;28;20484;-68
2022/06/02 09:25:08;;;;;;;5.00;2.70;;;;;;;31.28;32.13;96592.03;5111909;28;20107;-69
2022/06/02 09:28:07;;;;;;;4.75;2.38;;;;;;;31.23;32.88;96586.34;5113242;28;20024;-67
2022/06/02 09:30:58;;;;;;;5.82;2.42;;;;;;;31.48;33.04;96586.06;5113260;28;20488;-70
2022/06/02 09:33:44;;;;;;;3.40;2.50;;;;;;;31.33;33.18;96586.88;5113123;28;20092;-68
2022/06/02 09:36:46;;;;;;;4.97;2.20;;;;;;;31.40;32.68;96582.41;5112820;28;20138;-65
2022/06/02 09:39:49;;;;;;;6.38;2.30;;;;;;;31.59;32.48;96580.16;5113144;28;20020;-63
2022/06/02 09:42:48;;;;;;;4.70;2.67;;;;;;;31.64;32.71;96587.69;5113008;28;20354;-68
2022/06/02 09:45:14;;;;;;;4.93;2.92;;;;;;;31.37;32.39;96585.53;5114459;28;20024;-64
2022/06/02 09:48:22;;;;;;;2.92;2.63;;;;;;;31.42;33.39;96582.22;5116706;28;20024;-69
2022/06/02 09:50:53;;;;;;;5.63;2.55;;;;;;;31.50;31.77;96570.47;5116675;28;20019;-64
2022/06/02 09:53:43;;;;;;;2.90;2.17;;;;;;;31.60;32.46;96565.59;5116781;28;20055;-68
2022/06/02 09:56:47;;;;;;;3.40;2.13;;;;;;;31.37;33.48;96569.31;5116652;28;20031;-67
2022/06/02 09:59:41;;;;;;;4.13;2.47;;;;;;;31.62;33.06;96562.72;5113339;28;20037;-65
2022/06/02 10:02:19;;;;;;;4.60;2.53;;;;;;;31.96;32.87;96572.00;5116555;28;20469;-67
2022/06/02 10:05:08;;;;;;;5.22;2.47;;;;;;;32.08;33.94;96576.91;5116372;28;20023;-68
2022/06/02 10:07:47;;;;;;;4.22;2.30;;;;;;;32.06;31.90;96568.97;5116478;28;20023;-63
2022/06/02 10:10:51;;;;;;;3.95;2.05;;;;;;;31.69;29.75;96563.59;5116305;28;20393;-64
2022/06/02 10:13:54;;;;;;;8.23;2.20;;;;;;;31.45;32.02;96565.66;5116144;28;20032;-66
2022/06/02 10:16:48;;;;;;;6.68;2.17;;;;;;;31.42;31.50;96562.50;5116129;28;20032;-70
2022/06/02 10:19:35;;;;;;;5.90;2.40;;;;;;;31.69;32.99;96563.59;5088258;27;20497;-67
2022/06/02 10:22:29;;;;;;;3.97;2.28;;;;;;;31.93;33.07;96558.88;5116228;28;20439;-64
2022/06/02 10:25:14;;;;;;;2.53;2.20;;;;;;;32.07;33.11;96565.25;5116038;28;20024;-66
2022/06/02 10:27:59;;;;;;;2.90;1.98;;;;;;;32.06;30.78;96568.13;5115947;28;20040;-68
2022/06/02 10:31:02;;;;;;;2.95;2.20;;;;;;;31.67;31.57;96567.53;5115994;28;20030;-65
2022/06/02 10:33:36;;;;;;;3.65;2.05;;;;;;;31.25;31.54;96560.84;5115927;28;20043;-65
2022/06/02 10:36:20;;;;;;;4.70;2.33;;;;;;;31.17;32.07;96558.25;5115513;28;20048;-67
2022/06/02 10:39:13;;;;;;;4.18;2.55;;;;;;;31.35;31.42;96555.16;5115854;28;20046;-64
2022/06/02 10:42:00;;;;;;;5.13;2.25;;;;;;;31.39;31.86;96551.03;5115689;28;20027;-67
2022/06/02 10:45:17;;;;;;;5.68;3.00;;;;;;;31.55;33.25;96542.88;5115728;28;20519;-67
2022/06/02 10:48:05;;;;;;;6.13;2.30;;;;;;;31.67;32.02;96543.22;5115551;28;20051;-67
2022/06/02 10:51:08;;;;;;;5.38;2.53;;;;;;;31.94;32.24;96549.75;5114231;28;20036;-70
2022/06/02 10:54:02;;;;;;;2.97;2.30;;;;;;;32.06;30.74;96547.34;5115494;28;20026;-66
2022/06/02 10:56:37;;;;;;;7.38;2.38;;;;;;;32.09;31.25;96546.97;5114873;28;20119;-69
2022/06/02 10:59:14;;;;;;;4.63;2.25;;;;;;;31.83;31.91;96544.81;5115398;28;20035;-70
2022/06/02 11:01:43;;;;;;;3.00;2.72;;;;;;;31.33;32.59;96537.44;5115388;28;20163;-65
2022/06/02 11:04:46;;;;;;;5.25;2.53;;;;;;;30.84;32.84;96537.06;5115346;28;20042;-67
2022/06/02 11:07:53;;;;;;;5.18;2.55;;;;;;;30.45;34.49;96538.97;5115226;28;20020;-68
2022/06/02 11:10:30;;;;;;;3.97;2.80;;;;;;;30.33;36.28;96534.06;5086045;28;20032;-65
2022/06/02 11:13:11;;;;;;;3.17;2.40;;;;;;;30.45;33.83;96533.59;5115116;28;20596;-67
2022/06/02 11:15:52;;;;;;;2.42;2.22;;;;;;;30.54;34.22;96529.78;5115272;28;20059;-64
2022/06/02 11:18:53;;;;;;;6.50;2.28;;;;;;;30.54;34.34;96527.09;5115019;28;20039;-63
2022/06/02 11:21:51;;;;;;;6.88;2.65;;;;;;;30.69;32.82;96528.94;5080616;28;20043;-66
2022/06/02 11:24:39;;;;;;;7.05;2.75;;;;;;;30.72;35.03;96526.72;5114872;28;20374;-67
2022/06/02 11:27:36;;;;;;;7.05;2.30;;;;;;;30.83;32.42;96514.63;5114796;28;20096;-68
2022/06/02 11:30:20;;;;;;;4.97;2.55;;;;;;;30.64;32.08;96526.81;5114791;28;20028;-68
2022/06/02 11:33:14;;;;;;;6.32;2.40;;;;;;;30.63;32.68;96530.53;5114717;28;20027;-64
2022/06/02 11:36:16;;;;;;;3.13;2.40;;;;;;;30.84;31.07;96521.72;5114605;28;20096;-65
2022/06/02 11:39:12;;;;;;;4.82;2.38;;;;;;;31.13;32.32;96520.00;5114713;28;20031;-69
2022/06/02 11:41:50;;;;;;;3.38;2.03;;;;;;;31.32;31.99;96512.28;5114478;28;20497;-66
2022/06/02 11:44:28;;;;;;;4.35;2.25;;;;;;;31.61;33.20;96512.41;5114564;28;20031;-67
2022/06/02 11:47:17;;;;;;;5.78;2.70;;;;;;;31.69;31.32;96517.66;5114405;28;20024;-67
2022/06/02 11:49:49;;;;;;;5.40;2.38;;;;;;;31.53;31.18;96505.25;5114558;28;20045;-64
2022/06/02 11:52:29;;;;;;;4.25;1.77;;;;;;;31.56;31.21;96506.72;5114360;28;20083;-68
2022/06/02 11:55:20;;;;;;;4.10;2.17;;;;;;;31.39;31.56;96507.81;5114188;28;20389;-67
2022/06/02 11:58:19;;;;;;;3.53;1.92;;;;;;;31.30;28.68;96498.13;5114181;28;20035;-63
2022/06/02 12:01:27;;;;;;;4.00;2.03;;;;;;;31.17;28.54;96489.88;5114353;28;20381;-64
2022/06/02 12:03:59;;;;;;;3.25;1.75;;;;;;;31.25;30.63;96493.31;5113964;28;20038;-67
2022/06/02 12:06:40;;;;;;;3.83;1.80;;;;;;;31.05;28.83;96486.84;5113974;28;20060;-66
2022/06/02 12:09:08;;;;;;;4.35;1.65;;;;;;;31.11;29.21;96486.09;5113526;28;20031;-63
2022/06/02 12:12:11;;;;;;;5.40;1.90;;;;;;;30.98;28.35;96486.78;5114089;28;20073;-66
2022/06/02 12:14:55;;;;;;;3.20;1.80;;;;;;;31.09;28.26;96483.56;5113946;28;20031;-67
2022/06/02 12:17:49;;;;;;;6.47;2.13;;;;;;;30.78;28.47;96492.75;5113910;28;20100;-68
2022/06/02 12:20:39;;;;;;;3.47;1.88;;;;;;;30.84;28.04;96486.63;5114077;28;20038;-64
2022/06/02 12:23:25;;;;;;;2.83;1.88;;;;;;;31.03;27.09;96495.13;5114036;28;20072;-67
2022/06/02 12:26:00;;;;;;;2.30;1.48;;;;;;;31.14;26.18;96488.41;5113734;28;20496;-63
2022/06/02 12:28:44;;;;;;;1.80;1.70;;;;;;;31.17;27.80;96495.28;5113667;28;20062;-66
2022/06/02 12:31:35;;;;;;;3.13;2.00;;;;;;;31.14;28.68;96480.31;5112575;28;20063;-66
2022/06/02 12:34:22;;;;;;;4.18;2.20;;;;;;;31.19;29.43;96477.88;5113715;28;20431;-70
2022/06/02 12:37:12;;;;;;;5.22;2.17;;;;;;;31.44;28.89;96480.22;5113700;28;20049;-64
2022/06/02 12:39:47;;;;;;;2.50;1.88;;;;;;;31.49;27.68;96482.34;5113603;28;20055;-65
2022/06/02 12:42:41;;;;;;;4.20;1.83;;;;;;;31.28;26.71;96478.59;5113781;28;20035;-63
2022/06/02 12:45:45;;;;;;;1.95;1.70;;;;;;;31.24;26.57;96470.03;5113637;28;20039;-71
2022/06/02 12:48:26;;;;;;;3.25;1.70;;;;;;;31.17;26.39;96481.78;5050872;28;20040;-64
2022/06/02 12:51:01;;;;;;;2.83;1.67;;;;;;;31.02;26.45;96483.50;5106964;28;20035;-61
2022/06/02 12:53:41;;;;;;;2.53;1.58;;;;;;;31.03;25.85;96492.44;5113528;28;20036;-70
2022/06/02 12:56:28;;;;;;;;;;;;;;;30.98;27.71;96498.41;5114066;28;20031;-63
2022/06/02 12:59:32;;;;;;;5.00;1.65;;;;;;;30.79;26.71;96489.03;5103113;28;19944;-69
2022/06/02 13:02:16;;;;;;;4.53;1.70;;;;;;;30.77;27.74;96491.09;5113131;28;20031;-65
2022/06/02 13:05:01;;;;;;;4.70;1.85;;;;;;;30.86;28.41;96491.81;5113441;28;20138;-64
2022/06/02 13:07:45;;;;;;;4.35;1.60;;;;;;;30.86;27.08;96489.13;5113226;28;20374;-66
2022/06/02 13:10:28;;;;;;;2.22;1.55;;;;;;;30.92;28.20;96479.44;5113501;28;20032;-66